Ary, Kentucky
Current Conditions -  °F | °C
As of 6:53 AM on Sunday 25 Jan 2015 (Local Time) from KJKL Reporting Station
Clear Clear  
Wind Chill: 35°   Ceiling: Unl
Heat Index: 35°   Visibility: 10mi
Dew Point: 28°   Wind: 3mph
Humidity: 76%   Direction: NA
Pressure: 29.8"   Gusts: NA
Location:  37.37°N, 83.15°W
Report Text: KJKL 251153Z AUTO VRB03KT 10SM CLR 02/M02 A2980 RMK AO2 SLP098 70001 T00171022 10017 20000 56006
Loading
Personal Weather Stations






























Interactive Weather Map New forecast layout! Learn more

10-Day Weather Forecast

Advertisements
Track Severe Weather on mobile